sensor_id;sensor_type;location;lat;lon;timestamp;temperature;humidity
14357;DHT22;7262;48.764;9.166;2023-08-06T00:01:00;16.20;99.90
14357;DHT22;7262;48.764;9.166;2023-08-06T00:03:29;16.20;99.90
14357;DHT22;7262;48.764;9.166;2023-08-06T00:05:55;16.10;99.90
14357;DHT22;7262;48.764;9.166;2023-08-06T00:08:22;16.10;99.90
14357;DHT22;7262;48.764;9.166;2023-08-06T00:10:49;16.00;99.90
14357;DHT22;7262;48.764;9.166;2023-08-06T00:13:17;15.90;99.90
14357;DHT22;7262;48.764;9.166;2023-08-06T00:15:44;15.80;99.90
14357;DHT22;7262;48.764;9.166;2023-08-06T00:18:11;15.80;99.90
14357;DHT22;7262;48.764;9.166;2023-08-06T00:20:40;15.70;99.90
14357;DHT22;7262;48.764;9.166;2023-08-06T00:23:07;15.60;99.90
14357;DHT22;7262;48.764;9.166;2023-08-06T00:25:33;15.60;99.90
14357;DHT22;7262;48.764;9.166;2023-08-06T00:28:00;15.50;99.90
14357;DHT22;7262;48.764;9.166;2023-08-06T00:30:27;15.40;99.90
14357;DHT22;7262;48.764;9.166;2023-08-06T00:32:54;15.40;99.90
14357;DHT22;7262;48.764;9.166;2023-08-06T00:35:21;15.30;99.90
14357;DHT22;7262;48.764;9.166;2023-08-06T00:37:49;15.30;99.90
14357;DHT22;7262;48.764;9.166;2023-08-06T00:40:15;15.20;99.90
14357;DHT22;7262;48.764;9.166;2023-08-06T00:42:42;15.20;99.90
14357;DHT22;7262;48.764;9.166;2023-08-06T00:45:10;15.10;99.90
14357;DHT22;7262;48.764;9.166;2023-08-06T00:47:37;15.10;99.90
14357;DHT22;7262;48.764;9.166;2023-08-06T00:50:05;15.10;99.90
14357;DHT22;7262;48.764;9.166;2023-08-06T00:52:32;15.10;99.90
14357;DHT22;7262;48.764;9.166;2023-08-06T00:55:00;15.10;99.90
14357;DHT22;7262;48.764;9.166;2023-08-06T00:57:27;15.00;99.90
14357;DHT22;7262;48.764;9.166;2023-08-06T00:59:54;15.00;99.90
14357;DHT22;7262;48.764;9.166;2023-08-06T01:02:21;14.90;99.90
14357;DHT22;7262;48.764;9.166;2023-08-06T01:04:48;14.90;99.90
14357;DHT22;7262;48.764;9.166;2023-08-06T01:07:19;14.80;99.90
14357;DHT22;7262;48.764;9.166;2023-08-06T01:09:50;14.80;99.90
14357;DHT22;7262;48.764;9.166;2023-08-06T01:12:34;14.80;99.90
14357;DHT22;7262;48.764;9.166;2023-08-06T01:15:07;14.80;99.90
14357;DHT22;7262;48.764;9.166;2023-08-06T01:17:38;14.80;99.90
14357;DHT22;7262;48.764;9.166;2023-08-06T01:20:06;14.70;99.90
14357;DHT22;7262;48.764;9.166;2023-08-06T01:22:48;14.70;99.90
14357;DHT22;7262;48.764;9.166;2023-08-06T01:25:15;14.70;99.90
14357;DHT22;7262;48.764;9.166;2023-08-06T01:27:43;14.70;99.90
14357;DHT22;7262;48.764;9.166;2023-08-06T01:30:12;14.70;99.90
14357;DHT22;7262;48.764;9.166;2023-08-06T01:32:41;14.70;99.90
14357;DHT22;7262;48.764;9.166;2023-08-06T01:35:09;14.70;99.90
14357;DHT22;7262;48.764;9.166;2023-08-06T01:37:37;14.70;99.90
14357;DHT22;7262;48.764;9.166;2023-08-06T01:40:08;14.70;99.90
14357;DHT22;7262;48.764;9.166;2023-08-06T01:42:36;14.70;99.90
14357;DHT22;7262;48.764;9.166;2023-08-06T01:45:03;14.70;99.90
14357;DHT22;7262;48.764;9.166;2023-08-06T01:47:29;14.60;99.90
14357;DHT22;7262;48.764;9.166;2023-08-06T01:49:56;14.60;99.90
14357;DHT22;7262;48.764;9.166;2023-08-06T01:52:23;14.60;99.90
14357;DHT22;7262;48.764;9.166;2023-08-06T01:54:51;14.60;99.90
14357;DHT22;7262;48.764;9.166;2023-08-06T01:57:19;14.60;99.90
14357;DHT22;7262;48.764;9.166;2023-08-06T01:59:47;14.50;99.90
14357;DHT22;7262;48.764;9.166;2023-08-06T02:02:14;14.50;99.90
14357;DHT22;7262;48.764;9.166;2023-08-06T02:04:40;14.50;99.90
14357;DHT22;7262;48.764;9.166;2023-08-06T02:07:07;14.40;99.90
14357;DHT22;7262;48.764;9.166;2023-08-06T02:09:34;14.40;99.90
14357;DHT22;7262;48.764;9.166;2023-08-06T02:12:01;14.40;99.90
14357;DHT22;7262;48.764;9.166;2023-08-06T02:14:30;14.40;99.90
14357;DHT22;7262;48.764;9.166;2023-08-06T02:16:57;14.30;99.90
14357;DHT22;7262;48.764;9.166;2023-08-06T02:19:23;14.30;99.90
14357;DHT22;7262;48.764;9.166;2023-08-06T02:21:51;14.30;99.90
14357;DHT22;7262;48.764;9.166;2023-08-06T02:24:17;14.20;99.90
14357;DHT22;7262;48.764;9.166;2023-08-06T02:26:44;14.20;99.90
14357;DHT22;7262;48.764;9.166;2023-08-06T02:29:12;14.10;99.90
14357;DHT22;7262;48.764;9.166;2023-08-06T02:31:40;14.10;99.90
14357;DHT22;7262;48.764;9.166;2023-08-06T02:34:07;14.10;99.90
14357;DHT22;7262;48.764;9.166;2023-08-06T02:36:34;14.10;99.90
14357;DHT22;7262;48.764;9.166;2023-08-06T02:39:01;14.00;99.90
14357;DHT22;7262;48.764;9.166;2023-08-06T02:41:28;14.00;99.90
14357;DHT22;7262;48.764;9.166;2023-08-06T02:43:57;14.00;99.90
14357;DHT22;7262;48.764;9.166;2023-08-06T02:46:24;14.00;99.90
14357;DHT22;7262;48.764;9.166;2023-08-06T02:48:53;14.00;99.90
14357;DHT22;7262;48.764;9.166;2023-08-06T02:51:19;14.00;99.90
14357;DHT22;7262;48.764;9.166;2023-08-06T02:53:47;14.00;99.90
14357;DHT22;7262;48.764;9.166;2023-08-06T02:56:14;13.90;99.90
14357;DHT22;7262;48.764;9.166;2023-08-06T02:58:41;13.90;99.90
14357;DHT22;7262;48.764;9.166;2023-08-06T03:01:07;13.80;99.90
14357;DHT22;7262;48.764;9.166;2023-08-06T03:03:34;13.90;99.90
14357;DHT22;7262;48.764;9.166;2023-08-06T03:06:04;13.90;99.90
14357;DHT22;7262;48.764;9.166;2023-08-06T03:08:31;13.90;99.90
14357;DHT22;7262;48.764;9.166;2023-08-06T03:10:58;13.90;99.90
14357;DHT22;7262;48.764;9.166;2023-08-06T03:13:24;14.00;99.90
14357;DHT22;7262;48.764;9.166;2023-08-06T03:15:53;14.00;99.90
14357;DHT22;7262;48.764;9.166;2023-08-06T03:18:20;14.10;99.90
14357;DHT22;7262;48.764;9.166;2023-08-06T03:20:47;14.10;99.90
14357;DHT22;7262;48.764;9.166;2023-08-06T03:23:17;14.20;99.90
14357;DHT22;7262;48.764;9.166;2023-08-06T03:25:43;14.20;99.90
14357;DHT22;7262;48.764;9.166;2023-08-06T03:28:10;14.30;99.90
14357;DHT22;7262;48.764;9.166;2023-08-06T03:30:37;14.40;99.90
14357;DHT22;7262;48.764;9.166;2023-08-06T03:33:04;14.50;99.90
14357;DHT22;7262;48.764;9.166;2023-08-06T03:35:31;14.60;99.90
14357;DHT22;7262;48.764;9.166;2023-08-06T03:37:58;14.50;99.90
14357;DHT22;7262;48.764;9.166;2023-08-06T03:40:26;14.60;99.90
14357;DHT22;7262;48.764;9.166;2023-08-06T03:42:52;14.50;99.90
14357;DHT22;7262;48.764;9.166;2023-08-06T03:45:19;14.50;99.90
14357;DHT22;7262;48.764;9.166;2023-08-06T03:47:46;14.40;99.90
14357;DHT22;7262;48.764;9.166;2023-08-06T03:50:13;14.50;99.90
14357;DHT22;7262;48.764;9.166;2023-08-06T03:52:40;14.50;99.90
14357;DHT22;7262;48.764;9.166;2023-08-06T03:55:07;14.50;99.90
14357;DHT22;7262;48.764;9.166;2023-08-06T03:57:35;14.60;99.90
14357;DHT22;7262;48.764;9.166;2023-08-06T04:00:02;14.60;99.90
14357;DHT22;7262;48.764;9.166;2023-08-06T04:02:29;14.60;99.90
14357;DHT22;7262;48.764;9.166;2023-08-06T04:04:56;14.50;99.90
14357;DHT22;7262;48.764;9.166;2023-08-06T04:07:24;14.60;99.90
14357;DHT22;7262;48.764;9.166;2023-08-06T04:09:52;14.50;99.90
14357;DHT22;7262;48.764;9.166;2023-08-06T04:12:19;14.50;99.90
14357;DHT22;7262;48.764;9.166;2023-08-06T04:14:48;14.40;99.90
14357;DHT22;7262;48.764;9.166;2023-08-06T04:17:15;14.40;99.90
14357;DHT22;7262;48.764;9.166;2023-08-06T04:19:42;14.40;99.90
14357;DHT22;7262;48.764;9.166;2023-08-06T04:22:08;14.40;99.90
14357;DHT22;7262;48.764;9.166;2023-08-06T04:24:35;14.40;99.90
14357;DHT22;7262;48.764;9.166;2023-08-06T04:27:02;14.40;99.90
14357;DHT22;7262;48.764;9.166;2023-08-06T04:29:29;14.40;99.90
14357;DHT22;7262;48.764;9.166;2023-08-06T04:31:57;14.40;99.90
14357;DHT22;7262;48.764;9.166;2023-08-06T04:34:24;14.40;99.90
14357;DHT22;7262;48.764;9.166;2023-08-06T04:36:51;14.40;99.90
14357;DHT22;7262;48.764;9.166;2023-08-06T04:39:18;14.40;99.90
14357;DHT22;7262;48.764;9.166;2023-08-06T04:41:45;14.40;99.90
14357;DHT22;7262;48.764;9.166;2023-08-06T04:44:12;14.50;99.90
14357;DHT22;7262;48.764;9.166;2023-08-06T04:46:38;14.50;99.90
14357;DHT22;7262;48.764;9.166;2023-08-06T04:49:08;14.50;99.90
14357;DHT22;7262;48.764;9.166;2023-08-06T04:51:35;14.50;99.90
14357;DHT22;7262;48.764;9.166;2023-08-06T04:54:01;14.60;99.90
14357;DHT22;7262;48.764;9.166;2023-08-06T04:56:28;14.70;99.90
14357;DHT22;7262;48.764;9.166;2023-08-06T04:58:55;14.70;99.90
14357;DHT22;7262;48.764;9.166;2023-08-06T05:01:24;14.70;99.90
14357;DHT22;7262;48.764;9.166;2023-08-06T05:03:51;14.90;99.90
14357;DHT22;7262;48.764;9.166;2023-08-06T05:06:19;14.90;99.90
14357;DHT22;7262;48.764;9.166;2023-08-06T05:08:46;15.00;99.90
14357;DHT22;7262;48.764;9.166;2023-08-06T05:11:13;15.20;99.90
14357;DHT22;7262;48.764;9.166;2023-08-06T05:13:40;15.20;99.90
14357;DHT22;7262;48.764;9.166;2023-08-06T05:16:07;15.30;99.90
14357;DHT22;7262;48.764;9.166;2023-08-06T05:18:33;15.40;99.90
14357;DHT22;7262;48.764;9.166;2023-08-06T05:21:03;15.50;99.90
14357;DHT22;7262;48.764;9.166;2023-08-06T05:23:31;15.50;99.90
14357;DHT22;7262;48.764;9.166;2023-08-06T05:25:58;15.40;99.90
14357;DHT22;7262;48.764;9.166;2023-08-06T05:28:25;15.40;99.90
14357;DHT22;7262;48.764;9.166;2023-08-06T05:30:52;15.80;99.90
14357;DHT22;7262;48.764;9.166;2023-08-06T05:33:18;16.90;99.90
14357;DHT22;7262;48.764;9.166;2023-08-06T05:35:45;18.40;99.90
14357;DHT22;7262;48.764;9.166;2023-08-06T05:38:12;19.30;99.90
14357;DHT22;7262;48.764;9.166;2023-08-06T05:40:44;19.10;99.90
14357;DHT22;7262;48.764;9.166;2023-08-06T05:43:11;18.50;99.90
14357;DHT22;7262;48.764;9.166;2023-08-06T05:45:37;18.00;99.90
14357;DHT22;7262;48.764;9.166;2023-08-06T05:48:04;17.60;99.90
14357;DHT22;7262;48.764;9.166;2023-08-06T05:50:31;17.30;99.90
14357;DHT22;7262;48.764;9.166;2023-08-06T05:52:57;17.20;99.90
14357;DHT22;7262;48.764;9.166;2023-08-06T05:55:24;17.00;99.90
14357;DHT22;7262;48.764;9.166;2023-08-06T05:57:52;16.80;99.90
14357;DHT22;7262;48.764;9.166;2023-08-06T06:00:20;16.50;99.90
14357;DHT22;7262;48.764;9.166;2023-08-06T06:02:47;16.30;99.90
14357;DHT22;7262;48.764;9.166;2023-08-06T06:05:23;16.10;99.90
14357;DHT22;7262;48.764;9.166;2023-08-06T06:07:49;16.00;99.90
14357;DHT22;7262;48.764;9.166;2023-08-06T06:10:16;15.80;99.90
14357;DHT22;7262;48.764;9.166;2023-08-06T06:12:43;15.90;99.90
14357;DHT22;7262;48.764;9.166;2023-08-06T06:15:12;15.90;99.90
14357;DHT22;7262;48.764;9.166;2023-08-06T06:17:39;15.90;99.90
14357;DHT22;7262;48.764;9.166;2023-08-06T06:20:06;15.90;99.90
14357;DHT22;7262;48.764;9.166;2023-08-06T06:22:34;15.80;99.90
14357;DHT22;7262;48.764;9.166;2023-08-06T06:25:00;15.90;99.90
14357;DHT22;7262;48.764;9.166;2023-08-06T06:27:27;15.80;99.90
14357;DHT22;7262;48.764;9.166;2023-08-06T06:29:54;15.80;99.90
14357;DHT22;7262;48.764;9.166;2023-08-06T06:32:22;15.80;99.90
14357;DHT22;7262;48.764;9.166;2023-08-06T06:34:49;15.80;99.90
14357;DHT22;7262;48.764;9.166;2023-08-06T06:37:16;15.80;99.90
14357;DHT22;7262;48.764;9.166;2023-08-06T06:39:43;15.70;99.90
14357;DHT22;7262;48.764;9.166;2023-08-06T06:42:10;15.70;99.90
14357;DHT22;7262;48.764;9.166;2023-08-06T06:44:37;15.90;99.90
14357;DHT22;7262;48.764;9.166;2023-08-06T06:47:03;16.00;99.90
14357;DHT22;7262;48.764;9.166;2023-08-06T06:49:34;16.20;99.90
14357;DHT22;7262;48.764;9.166;2023-08-06T06:52:00;16.40;99.90
14357;DHT22;7262;48.764;9.166;2023-08-06T06:54:28;16.60;99.90
14357;DHT22;7262;48.764;9.166;2023-08-06T06:56:58;16.80;99.90
14357;DHT22;7262;48.764;9.166;2023-08-06T06:59:25;16.70;99.90
14357;DHT22;7262;48.764;9.166;2023-08-06T07:01:51;16.60;99.90
14357;DHT22;7262;48.764;9.166;2023-08-06T07:04:18;16.30;99.90
14357;DHT22;7262;48.764;9.166;2023-08-06T07:06:46;16.10;99.90
14357;DHT22;7262;48.764;9.166;2023-08-06T07:09:13;16.00;99.90
14357;DHT22;7262;48.764;9.166;2023-08-06T07:11:40;15.90;99.90
14357;DHT22;7262;48.764;9.166;2023-08-06T07:14:09;15.80;99.90
14357;DHT22;7262;48.764;9.166;2023-08-06T07:16:36;15.80;99.90
14357;DHT22;7262;48.764;9.166;2023-08-06T07:19:03;15.50;99.90
14357;DHT22;7262;48.764;9.166;2023-08-06T07:21:31;15.40;99.90
14357;DHT22;7262;48.764;9.166;2023-08-06T07:24:02;15.20;99.90
14357;DHT22;7262;48.764;9.166;2023-08-06T07:26:28;15.00;99.90
14357;DHT22;7262;48.764;9.166;2023-08-06T07:28:55;14.90;99.90
14357;DHT22;7262;48.764;9.166;2023-08-06T07:31:22;14.80;99.90
14357;DHT22;7262;48.764;9.166;2023-08-06T07:33:49;14.80;99.90
14357;DHT22;7262;48.764;9.166;2023-08-06T07:36:16;14.70;99.90
14357;DHT22;7262;48.764;9.166;2023-08-06T07:38:43;14.80;99.90
14357;DHT22;7262;48.764;9.166;2023-08-06T07:41:11;14.80;99.90
14357;DHT22;7262;48.764;9.166;2023-08-06T07:43:38;14.90;99.90
14357;DHT22;7262;48.764;9.166;2023-08-06T07:46:05;14.90;99.90
14357;DHT22;7262;48.764;9.166;2023-08-06T07:48:32;15.00;99.90
14357;DHT22;7262;48.764;9.166;2023-08-06T07:50:59;15.10;99.90
14357;DHT22;7262;48.764;9.166;2023-08-06T07:53:26;15.20;99.90
14357;DHT22;7262;48.764;9.166;2023-08-06T07:55:55;15.20;99.90
14357;DHT22;7262;48.764;9.166;2023-08-06T07:58:23;15.30;99.90
14357;DHT22;7262;48.764;9.166;2023-08-06T08:00:54;15.40;99.90
14357;DHT22;7262;48.764;9.166;2023-08-06T08:03:23;15.40;99.90
14357;DHT22;7262;48.764;9.166;2023-08-06T08:05:57;15.40;99.90
14357;DHT22;7262;48.764;9.166;2023-08-06T08:08:24;15.60;99.90
14357;DHT22;7262;48.764;9.166;2023-08-06T08:10:51;15.60;99.90
14357;DHT22;7262;48.764;9.166;2023-08-06T08:13:20;15.80;99.90
14357;DHT22;7262;48.764;9.166;2023-08-06T08:15:48;16.10;99.90
14357;DHT22;7262;48.764;9.166;2023-08-06T08:18:15;16.30;99.90
14357;DHT22;7262;48.764;9.166;2023-08-06T08:20:41;16.40;99.90
14357;DHT22;7262;48.764;9.166;2023-08-06T08:23:08;16.60;99.90
14357;DHT22;7262;48.764;9.166;2023-08-06T08:25:35;16.70;99.90
14357;DHT22;7262;48.764;9.166;2023-08-06T08:28:02;16.60;99.90
14357;DHT22;7262;48.764;9.166;2023-08-06T08:30:29;16.90;99.90
14357;DHT22;7262;48.764;9.166;2023-08-06T08:32:57;16.90;99.90
14357;DHT22;7262;48.764;9.166;2023-08-06T08:35:24;17.10;99.90
14357;DHT22;7262;48.764;9.166;2023-08-06T08:37:52;17.50;99.90
14357;DHT22;7262;48.764;9.166;2023-08-06T08:40:19;17.60;99.90
14357;DHT22;7262;48.764;9.166;2023-08-06T08:42:48;17.10;99.90
14357;DHT22;7262;48.764;9.166;2023-08-06T08:45:15;16.80;99.90
14357;DHT22;7262;48.764;9.166;2023-08-06T08:47:44;16.60;99.90
14357;DHT22;7262;48.764;9.166;2023-08-06T08:50:14;16.70;99.90
14357;DHT22;7262;48.764;9.166;2023-08-06T08:52:41;16.80;99.90
14357;DHT22;7262;48.764;9.166;2023-08-06T08:55:08;16.70;99.90
14357;DHT22;7262;48.764;9.166;2023-08-06T08:57:35;16.80;99.90
14357;DHT22;7262;48.764;9.166;2023-08-06T09:00:02;16.80;99.90
14357;DHT22;7262;48.764;9.166;2023-08-06T09:02:30;17.00;99.90
14357;DHT22;7262;48.764;9.166;2023-08-06T09:04:58;17.00;99.90
14357;DHT22;7262;48.764;9.166;2023-08-06T09:07:29;16.80;99.90
14357;DHT22;7262;48.764;9.166;2023-08-06T09:09:58;16.60;99.90
14357;DHT22;7262;48.764;9.166;2023-08-06T09:12:27;16.70;99.90
14357;DHT22;7262;48.764;9.166;2023-08-06T09:14:54;16.90;99.90
14357;DHT22;7262;48.764;9.166;2023-08-06T09:17:21;17.10;99.90
14357;DHT22;7262;48.764;9.166;2023-08-06T09:19:48;17.60;99.90
14357;DHT22;7262;48.764;9.166;2023-08-06T09:22:15;17.80;99.90
14357;DHT22;7262;48.764;9.166;2023-08-06T09:24:44;18.00;99.90
14357;DHT22;7262;48.764;9.166;2023-08-06T09:27:11;18.30;99.90
14357;DHT22;7262;48.764;9.166;2023-08-06T09:29:41;18.50;99.90
14357;DHT22;7262;48.764;9.166;2023-08-06T09:32:10;18.40;99.90
14357;DHT22;7262;48.764;9.166;2023-08-06T09:34:38;18.40;99.90
14357;DHT22;7262;48.764;9.166;2023-08-06T09:37:05;18.00;99.90
14357;DHT22;7262;48.764;9.166;2023-08-06T09:39:33;18.00;99.90
14357;DHT22;7262;48.764;9.166;2023-08-06T09:42:02;17.70;99.90
14357;DHT22;7262;48.764;9.166;2023-08-06T09:44:30;17.60;99.90
14357;DHT22;7262;48.764;9.166;2023-08-06T09:46:58;17.30;99.90
14357;DHT22;7262;48.764;9.166;2023-08-06T09:49:27;17.30;99.90
14357;DHT22;7262;48.764;9.166;2023-08-06T09:51:54;17.50;99.90
14357;DHT22;7262;48.764;9.166;2023-08-06T09:54:23;17.60;99.90
14357;DHT22;7262;48.764;9.166;2023-08-06T09:56:53;17.90;99.90
14357;DHT22;7262;48.764;9.166;2023-08-06T09:59:22;17.90;99.90
14357;DHT22;7262;48.764;9.166;2023-08-06T10:01:49;17.80;99.90
14357;DHT22;7262;48.764;9.166;2023-08-06T10:04:16;17.80;99.90
14357;DHT22;7262;48.764;9.166;2023-08-06T10:06:46;17.50;99.90
14357;DHT22;7262;48.764;9.166;2023-08-06T10:09:13;17.20;99.90
14357;DHT22;7262;48.764;9.166;2023-08-06T10:11:40;16.90;99.90
14357;DHT22;7262;48.764;9.166;2023-08-06T10:14:13;16.70;99.90
14357;DHT22;7262;48.764;9.166;2023-08-06T10:16:46;16.50;99.90
14357;DHT22;7262;48.764;9.166;2023-08-06T10:19:13;16.40;99.90
14357;DHT22;7262;48.764;9.166;2023-08-06T10:24:25;16.20;99.90
14357;DHT22;7262;48.764;9.166;2023-08-06T10:26:54;16.20;99.90
14357;DHT22;7262;48.764;9.166;2023-08-06T10:29:35;16.00;99.90
14357;DHT22;7262;48.764;9.166;2023-08-06T10:32:05;15.90;99.90
14357;DHT22;7262;48.764;9.166;2023-08-06T10:37:15;16.10;99.90
14357;DHT22;7262;48.764;9.166;2023-08-06T10:39:48;16.20;99.90
14357;DHT22;7262;48.764;9.166;2023-08-06T10:42:19;16.00;99.90
14357;DHT22;7262;48.764;9.166;2023-08-06T10:47:29;16.00;99.90
14357;DHT22;7262;48.764;9.166;2023-08-06T10:49:56;16.00;99.90
14357;DHT22;7262;48.764;9.166;2023-08-06T10:52:23;16.20;99.90
14357;DHT22;7262;48.764;9.166;2023-08-06T10:54:50;16.20;99.90
14357;DHT22;7262;48.764;9.166;2023-08-06T10:57:17;16.10;99.90
14357;DHT22;7262;48.764;9.166;2023-08-06T10:59:44;16.10;99.90
14357;DHT22;7262;48.764;9.166;2023-08-06T11:02:11;16.20;99.90
14357;DHT22;7262;48.764;9.166;2023-08-06T11:04:39;16.30;99.90
14357;DHT22;7262;48.764;9.166;2023-08-06T11:07:06;16.60;99.90
14357;DHT22;7262;48.764;9.166;2023-08-06T11:09:33;17.20;99.90
14357;DHT22;7262;48.764;9.166;2023-08-06T11:11:59;17.60;99.90
14357;DHT22;7262;48.764;9.166;2023-08-06T11:14:30;17.40;99.90
14357;DHT22;7262;48.764;9.166;2023-08-06T11:16:57;17.20;99.90
14357;DHT22;7262;48.764;9.166;2023-08-06T11:19:24;17.20;99.90
14357;DHT22;7262;48.764;9.166;2023-08-06T11:21:52;17.10;99.90
14357;DHT22;7262;48.764;9.166;2023-08-06T11:24:19;17.00;99.90
14357;DHT22;7262;48.764;9.166;2023-08-06T11:26:45;16.80;99.90
14357;DHT22;7262;48.764;9.166;2023-08-06T11:29:12;16.80;99.90
14357;DHT22;7262;48.764;9.166;2023-08-06T11:31:39;16.90;99.90
14357;DHT22;7262;48.764;9.166;2023-08-06T11:34:06;17.30;99.90
14357;DHT22;7262;48.764;9.166;2023-08-06T11:36:33;17.70;99.90
14357;DHT22;7262;48.764;9.166;2023-08-06T11:39:02;17.70;99.90
14357;DHT22;7262;48.764;9.166;2023-08-06T11:41:30;17.70;99.90
14357;DHT22;7262;48.764;9.166;2023-08-06T11:43:57;17.40;99.90
14357;DHT22;7262;48.764;9.166;2023-08-06T11:46:24;17.50;99.90
14357;DHT22;7262;48.764;9.166;2023-08-06T11:48:51;17.40;99.90
14357;DHT22;7262;48.764;9.166;2023-08-06T11:51:22;17.50;99.90
14357;DHT22;7262;48.764;9.166;2023-08-06T11:56:25;17.20;99.90
14357;DHT22;7262;48.764;9.166;2023-08-06T11:58:54;17.20;99.90
14357;DHT22;7262;48.764;9.166;2023-08-06T12:04:05;16.90;99.90
14357;DHT22;7262;48.764;9.166;2023-08-06T12:06:41;16.50;99.90
14357;DHT22;7262;48.764;9.166;2023-08-06T12:09:08;16.30;99.90
14357;DHT22;7262;48.764;9.166;2023-08-06T12:11:39;16.30;99.90
14357;DHT22;7262;48.764;9.166;2023-08-06T12:14:06;16.30;99.90
14357;DHT22;7262;48.764;9.166;2023-08-06T12:16:33;16.30;99.90
14357;DHT22;7262;48.764;9.166;2023-08-06T12:19:01;16.20;99.90
14357;DHT22;7262;48.764;9.166;2023-08-06T12:21:29;16.20;99.90
14357;DHT22;7262;48.764;9.166;2023-08-06T12:26:33;16.40;99.90
14357;DHT22;7262;48.764;9.166;2023-08-06T12:29:02;16.60;99.90
14357;DHT22;7262;48.764;9.166;2023-08-06T12:31:31;16.70;99.90
14357;DHT22;7262;48.764;9.166;2023-08-06T12:33:59;16.90;99.90
14357;DHT22;7262;48.764;9.166;2023-08-06T12:36:29;17.10;99.90
14357;DHT22;7262;48.764;9.166;2023-08-06T12:38:56;17.50;99.90
14357;DHT22;7262;48.764;9.166;2023-08-06T12:41:23;17.70;99.90
14357;DHT22;7262;48.764;9.166;2023-08-06T12:43:50;17.70;99.90
14357;DHT22;7262;48.764;9.166;2023-08-06T12:46:18;17.80;99.90
14357;DHT22;7262;48.764;9.166;2023-08-06T12:48:47;17.90;99.90
14357;DHT22;7262;48.764;9.166;2023-08-06T12:51:14;17.80;99.90
14357;DHT22;7262;48.764;9.166;2023-08-06T12:53:41;18.00;99.90
14357;DHT22;7262;48.764;9.166;2023-08-06T12:56:16;18.00;99.90
14357;DHT22;7262;48.764;9.166;2023-08-06T12:58:45;18.30;99.90
14357;DHT22;7262;48.764;9.166;2023-08-06T13:01:12;18.30;99.90
14357;DHT22;7262;48.764;9.166;2023-08-06T13:03:40;18.10;99.90
14357;DHT22;7262;48.764;9.166;2023-08-06T13:06:07;18.00;99.90
14357;DHT22;7262;48.764;9.166;2023-08-06T13:08:35;18.00;99.90
14357;DHT22;7262;48.764;9.166;2023-08-06T13:11:01;18.00;99.90
14357;DHT22;7262;48.764;9.166;2023-08-06T13:13:28;18.40;99.90
14357;DHT22;7262;48.764;9.166;2023-08-06T13:15:55;18.30;99.90
14357;DHT22;7262;48.764;9.166;2023-08-06T13:18:22;18.30;99.90
14357;DHT22;7262;48.764;9.166;2023-08-06T13:20:51;18.60;99.90
14357;DHT22;7262;48.764;9.166;2023-08-06T13:23:19;18.70;99.90
14357;DHT22;7262;48.764;9.166;2023-08-06T13:25:46;19.10;99.90
14357;DHT22;7262;48.764;9.166;2023-08-06T13:28:13;19.20;99.90
14357;DHT22;7262;48.764;9.166;2023-08-06T13:30:40;19.30;99.90
14357;DHT22;7262;48.764;9.166;2023-08-06T13:33:08;19.30;99.90
14357;DHT22;7262;48.764;9.166;2023-08-06T13:35:41;19.50;99.90
14357;DHT22;7262;48.764;9.166;2023-08-06T13:38:28;19.50;99.90
14357;DHT22;7262;48.764;9.166;2023-08-06T13:40:54;19.00;99.90
14357;DHT22;7262;48.764;9.166;2023-08-06T13:43:21;19.00;99.90
14357;DHT22;7262;48.764;9.166;2023-08-06T13:45:48;18.90;99.90
14357;DHT22;7262;48.764;9.166;2023-08-06T13:48:16;18.70;99.90
14357;DHT22;7262;48.764;9.166;2023-08-06T13:50:43;18.60;99.90
14357;DHT22;7262;48.764;9.166;2023-08-06T13:53:10;18.20;99.90
14357;DHT22;7262;48.764;9.166;2023-08-06T13:55:38;18.10;99.90
14357;DHT22;7262;48.764;9.166;2023-08-06T13:58:05;18.20;99.90
14357;DHT22;7262;48.764;9.166;2023-08-06T14:00:32;18.20;99.90
14357;DHT22;7262;48.764;9.166;2023-08-06T14:02:58;18.50;99.90
14357;DHT22;7262;48.764;9.166;2023-08-06T14:05:25;18.70;99.90
14357;DHT22;7262;48.764;9.166;2023-08-06T14:07:55;18.60;99.90
14357;DHT22;7262;48.764;9.166;2023-08-06T14:10:22;18.50;99.90
14357;DHT22;7262;48.764;9.166;2023-08-06T14:12:50;18.50;99.90
14357;DHT22;7262;48.764;9.166;2023-08-06T14:15:16;18.20;99.90
14357;DHT22;7262;48.764;9.166;2023-08-06T14:17:43;18.20;99.90
14357;DHT22;7262;48.764;9.166;2023-08-06T14:20:10;18.30;99.90
14357;DHT22;7262;48.764;9.166;2023-08-06T14:22:38;18.60;99.90
14357;DHT22;7262;48.764;9.166;2023-08-06T14:25:05;19.00;99.90
14357;DHT22;7262;48.764;9.166;2023-08-06T14:27:32;18.90;99.90
14357;DHT22;7262;48.764;9.166;2023-08-06T14:30:01;18.80;99.90
14357;DHT22;7262;48.764;9.166;2023-08-06T14:32:28;18.80;99.90
14357;DHT22;7262;48.764;9.166;2023-08-06T14:34:55;18.80;99.90
14357;DHT22;7262;48.764;9.166;2023-08-06T14:37:23;18.70;99.90
14357;DHT22;7262;48.764;9.166;2023-08-06T14:39:50;18.50;99.90
14357;DHT22;7262;48.764;9.166;2023-08-06T14:42:17;18.30;99.90
14357;DHT22;7262;48.764;9.166;2023-08-06T14:44:44;17.90;99.90
14357;DHT22;7262;48.764;9.166;2023-08-06T14:47:12;17.60;99.90
14357;DHT22;7262;48.764;9.166;2023-08-06T14:49:39;17.20;99.90
14357;DHT22;7262;48.764;9.166;2023-08-06T14:52:06;17.10;99.90
14357;DHT22;7262;48.764;9.166;2023-08-06T14:54:33;17.20;99.90
14357;DHT22;7262;48.764;9.166;2023-08-06T14:57:00;17.40;99.90
14357;DHT22;7262;48.764;9.166;2023-08-06T14:59:27;17.60;99.90
14357;DHT22;7262;48.764;9.166;2023-08-06T15:01:54;17.50;99.90
14357;DHT22;7262;48.764;9.166;2023-08-06T15:04:24;17.40;99.90
14357;DHT22;7262;48.764;9.166;2023-08-06T15:06:52;17.00;99.90
14357;DHT22;7262;48.764;9.166;2023-08-06T15:09:20;16.80;99.90
14357;DHT22;7262;48.764;9.166;2023-08-06T15:11:48;16.80;99.90
14357;DHT22;7262;48.764;9.166;2023-08-06T15:14:18;17.30;99.90
14357;DHT22;7262;48.764;9.166;2023-08-06T15:16:47;17.70;99.90
14357;DHT22;7262;48.764;9.166;2023-08-06T15:19:16;18.00;99.90
14357;DHT22;7262;48.764;9.166;2023-08-06T15:21:44;18.20;99.90
14357;DHT22;7262;48.764;9.166;2023-08-06T15:24:11;18.60;99.90
14357;DHT22;7262;48.764;9.166;2023-08-06T15:26:38;18.90;99.90
14357;DHT22;7262;48.764;9.166;2023-08-06T15:29:05;18.80;99.90
14357;DHT22;7262;48.764;9.166;2023-08-06T15:31:35;18.60;99.90
14357;DHT22;7262;48.764;9.166;2023-08-06T15:34:02;18.80;99.90
14357;DHT22;7262;48.764;9.166;2023-08-06T15:39:02;19.00;99.90
14357;DHT22;7262;48.764;9.166;2023-08-06T15:41:30;18.90;99.90
14357;DHT22;7262;48.764;9.166;2023-08-06T15:43:57;18.90;99.90
14357;DHT22;7262;48.764;9.166;2023-08-06T15:46:24;18.60;99.90
14357;DHT22;7262;48.764;9.166;2023-08-06T15:48:51;18.80;99.90
14357;DHT22;7262;48.764;9.166;2023-08-06T15:51:20;19.00;99.90
14357;DHT22;7262;48.764;9.166;2023-08-06T15:53:46;18.80;99.90
14357;DHT22;7262;48.764;9.166;2023-08-06T15:56:15;18.80;99.90
14357;DHT22;7262;48.764;9.166;2023-08-06T15:58:41;18.70;99.90
14357;DHT22;7262;48.764;9.166;2023-08-06T16:01:08;18.80;99.90
14357;DHT22;7262;48.764;9.166;2023-08-06T16:03:35;18.80;99.90
14357;DHT22;7262;48.764;9.166;2023-08-06T16:06:07;18.60;99.90